sensor_id;sensor_type;location;lat;lon;timestamp;P1;P2;P0
39955;PMS5003;25631;51.516;-0.470;2023-08-08T00:02:10;2;2;
39955;PMS5003;25631;51.516;-0.470;2023-08-08T00:04:48;1;1;
39955;PMS5003;25631;51.516;-0.470;2023-08-08T00:07:24;1;1;
39955;PMS5003;25631;51.516;-0.470;2023-08-08T00:10:01;1;1;
39955;PMS5003;25631;51.516;-0.470;2023-08-08T00:12:38;1;1;
39955;PMS5003;25631;51.516;-0.470;2023-08-08T00:15:15;0;0;
39955;PMS5003;25631;51.516;-0.470;2023-08-08T00:17:51;0;0;
39955;PMS5003;25631;51.516;-0.470;2023-08-08T00:20:28;1;1;
39955;PMS5003;25631;51.516;-0.470;2023-08-08T00:23:04;2;2;
39955;PMS5003;25631;51.516;-0.470;2023-08-08T00:25:41;2;2;
39955;PMS5003;25631;51.516;-0.470;2023-08-08T00:28:17;3;3;
39955;PMS5003;25631;51.516;-0.470;2023-08-08T00:30:53;3;3;
39955;PMS5003;25631;51.516;-0.470;2023-08-08T00:33:30;2;2;
39955;PMS5003;25631;51.516;-0.470;2023-08-08T00:36:06;2;2;
39955;PMS5003;25631;51.516;-0.470;2023-08-08T00:38:43;2;2;
39955;PMS5003;25631;51.516;-0.470;2023-08-08T00:41:19;1;1;
39955;PMS5003;25631;51.516;-0.470;2023-08-08T00:43:56;3;2;
39955;PMS5003;25631;51.516;-0.470;2023-08-08T00:46:32;2;2;
39955;PMS5003;25631;51.516;-0.470;2023-08-08T00:49:09;3;3;
39955;PMS5003;25631;51.516;-0.470;2023-08-08T00:51:46;3;3;
39955;PMS5003;25631;51.516;-0.470;2023-08-08T00:54:23;2;2;
39955;PMS5003;25631;51.516;-0.470;2023-08-08T00:56:59;2;2;
39955;PMS5003;25631;51.516;-0.470;2023-08-08T00:59:36;1;0;
39955;PMS5003;25631;51.516;-0.470;2023-08-08T01:02:13;2;1;
39955;PMS5003;25631;51.516;-0.470;2023-08-08T01:04:49;0;0;
39955;PMS5003;25631;51.516;-0.470;2023-08-08T01:07:29;1;1;
39955;PMS5003;25631;51.516;-0.470;2023-08-08T01:10:12;3;2;
39955;PMS5003;25631;51.516;-0.470;2023-08-08T01:12:53;0;0;
39955;PMS5003;25631;51.516;-0.470;2023-08-08T01:15:33;0;0;
39955;PMS5003;25631;51.516;-0.470;2023-08-08T01:18:10;0;0;
39955;PMS5003;25631;51.516;-0.470;2023-08-08T01:20:47;1;1;
39955;PMS5003;25631;51.516;-0.470;2023-08-08T01:23:25;2;2;
39955;PMS5003;25631;51.516;-0.470;2023-08-08T01:26:06;1;0;
39955;PMS5003;25631;51.516;-0.470;2023-08-08T01:28:43;1;0;
39955;PMS5003;25631;51.516;-0.470;2023-08-08T01:31:19;1;1;
39955;PMS5003;25631;51.516;-0.470;2023-08-08T01:33:56;1;0;
39955;PMS5003;25631;51.516;-0.470;2023-08-08T01:36:34;1;0;
39955;PMS5003;25631;51.516;-0.470;2023-08-08T01:39:20;0;0;
39955;PMS5003;25631;51.516;-0.470;2023-08-08T01:42:01;0;0;
39955;PMS5003;25631;51.516;-0.470;2023-08-08T01:44:38;0;0;
39955;PMS5003;25631;51.516;-0.470;2023-08-08T01:47:17;0;0;
39955;PMS5003;25631;51.516;-0.470;2023-08-08T01:49:53;0;0;
39955;PMS5003;25631;51.516;-0.470;2023-08-08T01:52:30;0;0;
39955;PMS5003;25631;51.516;-0.470;2023-08-08T01:55:07;0;0;
39955;PMS5003;25631;51.516;-0.470;2023-08-08T01:57:44;0;0;
39955;PMS5003;25631;51.516;-0.470;2023-08-08T02:00:20;0;0;
39955;PMS5003;25631;51.516;-0.470;2023-08-08T02:02:57;0;0;
39955;PMS5003;25631;51.516;-0.470;2023-08-08T02:05:33;0;0;
39955;PMS5003;25631;51.516;-0.470;2023-08-08T02:08:10;2;0;
39955;PMS5003;25631;51.516;-0.470;2023-08-08T02:10:46;0;0;
39955;PMS5003;25631;51.516;-0.470;2023-08-08T02:13:22;1;1;
39955;PMS5003;25631;51.516;-0.470;2023-08-08T02:15:59;1;1;
39955;PMS5003;25631;51.516;-0.470;2023-08-08T02:18:35;1;1;
39955;PMS5003;25631;51.516;-0.470;2023-08-08T02:21:12;1;1;
39955;PMS5003;25631;51.516;-0.470;2023-08-08T02:23:48;1;1;
39955;PMS5003;25631;51.516;-0.470;2023-08-08T02:26:25;1;1;
39955;PMS5003;25631;51.516;-0.470;2023-08-08T02:29:01;1;1;
39955;PMS5003;25631;51.516;-0.470;2023-08-08T02:31:38;2;2;
39955;PMS5003;25631;51.516;-0.470;2023-08-08T02:34:14;0;0;
39955;PMS5003;25631;51.516;-0.470;2023-08-08T02:36:51;0;0;
39955;PMS5003;25631;51.516;-0.470;2023-08-08T02:39:27;0;0;
39955;PMS5003;25631;51.516;-0.470;2023-08-08T02:42:04;1;0;
39955;PMS5003;25631;51.516;-0.470;2023-08-08T02:44:41;2;1;
39955;PMS5003;25631;51.516;-0.470;2023-08-08T02:47:17;0;0;
39955;PMS5003;25631;51.516;-0.470;2023-08-08T02:49:54;0;0;
39955;PMS5003;25631;51.516;-0.470;2023-08-08T02:52:31;0;0;
39955;PMS5003;25631;51.516;-0.470;2023-08-08T02:55:08;1;1;
39955;PMS5003;25631;51.516;-0.470;2023-08-08T02:57:44;0;0;
39955;PMS5003;25631;51.516;-0.470;2023-08-08T03:00:21;1;1;
39955;PMS5003;25631;51.516;-0.470;2023-08-08T03:02:58;0;0;
39955;PMS5003;25631;51.516;-0.470;2023-08-08T03:05:34;1;1;
39955;PMS5003;25631;51.516;-0.470;2023-08-08T03:08:10;0;0;
39955;PMS5003;25631;51.516;-0.470;2023-08-08T03:10:47;0;0;
39955;PMS5003;25631;51.516;-0.470;2023-08-08T03:13:23;0;0;
39955;PMS5003;25631;51.516;-0.470;2023-08-08T03:16:00;0;0;
39955;PMS5003;25631;51.516;-0.470;2023-08-08T03:18:36;1;1;
39955;PMS5003;25631;51.516;-0.470;2023-08-08T03:21:13;0;0;
39955;PMS5003;25631;51.516;-0.470;2023-08-08T03:23:49;0;0;
39955;PMS5003;25631;51.516;-0.470;2023-08-08T03:26:26;0;0;
39955;PMS5003;25631;51.516;-0.470;2023-08-08T03:29:02;1;1;
39955;PMS5003;25631;51.516;-0.470;2023-08-08T03:31:38;1;0;
39955;PMS5003;25631;51.516;-0.470;2023-08-08T03:34:15;0;0;
39955;PMS5003;25631;51.516;-0.470;2023-08-08T03:36:51;1;1;
39955;PMS5003;25631;51.516;-0.470;2023-08-08T03:39:28;1;1;
39955;PMS5003;25631;51.516;-0.470;2023-08-08T03:42:04;0;0;
39955;PMS5003;25631;51.516;-0.470;2023-08-08T03:44:41;0;0;
39955;PMS5003;25631;51.516;-0.470;2023-08-08T03:47:17;0;0;
39955;PMS5003;25631;51.516;-0.470;2023-08-08T03:49:55;0;0;
39955;PMS5003;25631;51.516;-0.470;2023-08-08T03:52:31;0;0;
39955;PMS5003;25631;51.516;-0.470;2023-08-08T03:55:08;1;1;
39955;PMS5003;25631;51.516;-0.470;2023-08-08T03:57:44;0;0;
39955;PMS5003;25631;51.516;-0.470;2023-08-08T04:00:21;1;1;
39955;PMS5003;25631;51.516;-0.470;2023-08-08T04:02:57;2;1;
39955;PMS5003;25631;51.516;-0.470;2023-08-08T04:05:34;1;1;
39955;PMS5003;25631;51.516;-0.470;2023-08-08T04:08:10;1;1;
39955;PMS5003;25631;51.516;-0.470;2023-08-08T04:10:47;0;0;
39955;PMS5003;25631;51.516;-0.470;2023-08-08T04:13:23;0;0;
39955;PMS5003;25631;51.516;-0.470;2023-08-08T04:16:00;2;2;
39955;PMS5003;25631;51.516;-0.470;2023-08-08T04:18:36;2;2;
39955;PMS5003;25631;51.516;-0.470;2023-08-08T04:21:13;3;2;
39955;PMS5003;25631;51.516;-0.470;2023-08-08T04:23:50;0;0;
39955;PMS5003;25631;51.516;-0.470;2023-08-08T04:26:26;1;1;
39955;PMS5003;25631;51.516;-0.470;2023-08-08T04:29:02;1;1;
39955;PMS5003;25631;51.516;-0.470;2023-08-08T04:31:39;2;2;
39955;PMS5003;25631;51.516;-0.470;2023-08-08T04:34:15;1;1;
39955;PMS5003;25631;51.516;-0.470;2023-08-08T04:36:52;2;1;
39955;PMS5003;25631;51.516;-0.470;2023-08-08T04:39:28;2;1;
39955;PMS5003;25631;51.516;-0.470;2023-08-08T04:42:05;1;1;
39955;PMS5003;25631;51.516;-0.470;2023-08-08T04:44:42;3;3;
39955;PMS5003;25631;51.516;-0.470;2023-08-08T04:47:18;2;2;
39955;PMS5003;25631;51.516;-0.470;2023-08-08T04:49:55;2;0;
39955;PMS5003;25631;51.516;-0.470;2023-08-08T04:52:31;1;0;
39955;PMS5003;25631;51.516;-0.470;2023-08-08T04:55:08;0;0;
39955;PMS5003;25631;51.516;-0.470;2023-08-08T04:57:45;1;1;
39955;PMS5003;25631;51.516;-0.470;2023-08-08T05:00:21;1;1;
39955;PMS5003;25631;51.516;-0.470;2023-08-08T05:02:58;1;1;
39955;PMS5003;25631;51.516;-0.470;2023-08-08T05:05:34;1;1;
39955;PMS5003;25631;51.516;-0.470;2023-08-08T05:08:11;1;1;
39955;PMS5003;25631;51.516;-0.470;2023-08-08T05:10:47;2;1;
39955;PMS5003;25631;51.516;-0.470;2023-08-08T05:13:24;2;1;
39955;PMS5003;25631;51.516;-0.470;2023-08-08T05:16:00;2;2;
39955;PMS5003;25631;51.516;-0.470;2023-08-08T05:18:37;1;1;
39955;PMS5003;25631;51.516;-0.470;2023-08-08T05:21:13;1;1;
39955;PMS5003;25631;51.516;-0.470;2023-08-08T05:23:49;0;0;
39955;PMS5003;25631;51.516;-0.470;2023-08-08T05:26:26;1;1;
39955;PMS5003;25631;51.516;-0.470;2023-08-08T05:29:03;1;1;
39955;PMS5003;25631;51.516;-0.470;2023-08-08T05:31:39;0;0;
39955;PMS5003;25631;51.516;-0.470;2023-08-08T05:34:16;0;0;
39955;PMS5003;25631;51.516;-0.470;2023-08-08T05:36:53;1;1;
39955;PMS5003;25631;51.516;-0.470;2023-08-08T05:39:29;1;1;
39955;PMS5003;25631;51.516;-0.470;2023-08-08T05:42:06;1;1;
39955;PMS5003;25631;51.516;-0.470;2023-08-08T05:44:42;0;0;
39955;PMS5003;25631;51.516;-0.470;2023-08-08T05:47:19;1;1;
39955;PMS5003;25631;51.516;-0.470;2023-08-08T05:49:55;1;1;
39955;PMS5003;25631;51.516;-0.470;2023-08-08T05:52:32;0;0;
39955;PMS5003;25631;51.516;-0.470;2023-08-08T05:55:08;1;1;
39955;PMS5003;25631;51.516;-0.470;2023-08-08T05:57:45;1;1;
39955;PMS5003;25631;51.516;-0.470;2023-08-08T06:00:21;1;1;
39955;PMS5003;25631;51.516;-0.470;2023-08-08T06:02:58;1;1;
39955;PMS5003;25631;51.516;-0.470;2023-08-08T06:05:34;0;0;
39955;PMS5003;25631;51.516;-0.470;2023-08-08T06:08:11;0;0;
39955;PMS5003;25631;51.516;-0.470;2023-08-08T06:10:47;1;1;
39955;PMS5003;25631;51.516;-0.470;2023-08-08T06:13:24;1;1;
39955;PMS5003;25631;51.516;-0.470;2023-08-08T06:16:00;1;1;
39955;PMS5003;25631;51.516;-0.470;2023-08-08T06:18:36;0;0;
39955;PMS5003;25631;51.516;-0.470;2023-08-08T06:21:13;1;1;
39955;PMS5003;25631;51.516;-0.470;2023-08-08T06:23:49;1;1;
39955;PMS5003;25631;51.516;-0.470;2023-08-08T06:26:26;1;1;
39955;PMS5003;25631;51.516;-0.470;2023-08-08T06:29:03;1;1;
39955;PMS5003;25631;51.516;-0.470;2023-08-08T06:31:39;1;1;
39955;PMS5003;25631;51.516;-0.470;2023-08-08T06:34:15;1;1;
39955;PMS5003;25631;51.516;-0.470;2023-08-08T06:36:52;1;1;
39955;PMS5003;25631;51.516;-0.470;2023-08-08T06:39:28;1;1;
39955;PMS5003;25631;51.516;-0.470;2023-08-08T06:42:05;2;1;
39955;PMS5003;25631;51.516;-0.470;2023-08-08T06:44:42;1;1;
39955;PMS5003;25631;51.516;-0.470;2023-08-08T06:47:20;1;1;
39955;PMS5003;25631;51.516;-0.470;2023-08-08T06:49:56;1;1;
39955;PMS5003;25631;51.516;-0.470;2023-08-08T06:52:33;1;1;
39955;PMS5003;25631;51.516;-0.470;2023-08-08T06:55:10;0;0;
39955;PMS5003;25631;51.516;-0.470;2023-08-08T06:57:47;1;1;
39955;PMS5003;25631;51.516;-0.470;2023-08-08T07:00:24;1;1;
39955;PMS5003;25631;51.516;-0.470;2023-08-08T07:03:00;2;2;
39955;PMS5003;25631;51.516;-0.470;2023-08-08T07:05:36;3;3;
39955;PMS5003;25631;51.516;-0.470;2023-08-08T07:08:13;3;3;
39955;PMS5003;25631;51.516;-0.470;2023-08-08T07:10:49;3;3;
39955;PMS5003;25631;51.516;-0.470;2023-08-08T07:13:26;3;2;
39955;PMS5003;25631;51.516;-0.470;2023-08-08T07:16:02;3;2;
39955;PMS5003;25631;51.516;-0.470;2023-08-08T07:18:39;2;2;
39955;PMS5003;25631;51.516;-0.470;2023-08-08T07:21:15;1;1;
39955;PMS5003;25631;51.516;-0.470;2023-08-08T07:23:52;1;1;
39955;PMS5003;25631;51.516;-0.470;2023-08-08T07:26:28;2;2;
39955;PMS5003;25631;51.516;-0.470;2023-08-08T07:29:05;2;2;
39955;PMS5003;25631;51.516;-0.470;2023-08-08T07:31:41;3;3;
39955;PMS5003;25631;51.516;-0.470;2023-08-08T07:34:17;2;2;
39955;PMS5003;25631;51.516;-0.470;2023-08-08T07:36:54;2;2;
39955;PMS5003;25631;51.516;-0.470;2023-08-08T07:39:30;2;2;
39955;PMS5003;25631;51.516;-0.470;2023-08-08T07:42:07;2;2;
39955;PMS5003;25631;51.516;-0.470;2023-08-08T07:44:43;3;2;
39955;PMS5003;25631;51.516;-0.470;2023-08-08T07:47:21;2;1;
39955;PMS5003;25631;51.516;-0.470;2023-08-08T07:49:57;1;0;
39955;PMS5003;25631;51.516;-0.470;2023-08-08T07:52:34;1;1;
39955;PMS5003;25631;51.516;-0.470;2023-08-08T07:55:10;1;1;
39955;PMS5003;25631;51.516;-0.470;2023-08-08T07:57:47;2;2;
39955;PMS5003;25631;51.516;-0.470;2023-08-08T08:00:23;2;2;
39955;PMS5003;25631;51.516;-0.470;2023-08-08T08:03:00;2;2;
39955;PMS5003;25631;51.516;-0.470;2023-08-08T08:05:36;2;2;
39955;PMS5003;25631;51.516;-0.470;2023-08-08T08:08:12;2;2;
39955;PMS5003;25631;51.516;-0.470;2023-08-08T08:10:49;2;2;
39955;PMS5003;25631;51.516;-0.470;2023-08-08T08:13:26;1;1;
39955;PMS5003;25631;51.516;-0.470;2023-08-08T08:16:03;1;1;
39955;PMS5003;25631;51.516;-0.470;2023-08-08T08:18:39;1;1;
39955;PMS5003;25631;51.516;-0.470;2023-08-08T08:21:16;2;1;
39955;PMS5003;25631;51.516;-0.470;2023-08-08T08:23:52;2;2;
39955;PMS5003;25631;51.516;-0.470;2023-08-08T08:26:29;2;2;
39955;PMS5003;25631;51.516;-0.470;2023-08-08T08:29:05;1;1;
39955;PMS5003;25631;51.516;-0.470;2023-08-08T08:31:42;1;1;
39955;PMS5003;25631;51.516;-0.470;2023-08-08T08:34:18;1;1;
39955;PMS5003;25631;51.516;-0.470;2023-08-08T08:36:54;0;0;
39955;PMS5003;25631;51.516;-0.470;2023-08-08T08:39:31;2;2;
39955;PMS5003;25631;51.516;-0.470;2023-08-08T08:42:07;2;2;
39955;PMS5003;25631;51.516;-0.470;2023-08-08T08:44:49;2;2;
39955;PMS5003;25631;51.516;-0.470;2023-08-08T08:47:27;2;2;
39955;PMS5003;25631;51.516;-0.470;2023-08-08T08:50:07;1;1;
39955;PMS5003;25631;51.516;-0.470;2023-08-08T08:52:43;1;1;
39955;PMS5003;25631;51.516;-0.470;2023-08-08T08:55:20;1;1;
39955;PMS5003;25631;51.516;-0.470;2023-08-08T08:57:58;1;1;
39955;PMS5003;25631;51.516;-0.470;2023-08-08T09:00:35;2;2;
39955;PMS5003;25631;51.516;-0.470;2023-08-08T09:03:12;2;2;
39955;PMS5003;25631;51.516;-0.470;2023-08-08T09:05:49;1;1;
39955;PMS5003;25631;51.516;-0.470;2023-08-08T09:08:28;2;2;
39955;PMS5003;25631;51.516;-0.470;2023-08-08T09:11:04;1;1;
39955;PMS5003;25631;51.516;-0.470;2023-08-08T09:13:41;1;1;
39955;PMS5003;25631;51.516;-0.470;2023-08-08T09:16:17;1;1;
39955;PMS5003;25631;51.516;-0.470;2023-08-08T09:18:54;1;1;
39955;PMS5003;25631;51.516;-0.470;2023-08-08T09:21:30;1;0;
39955;PMS5003;25631;51.516;-0.470;2023-08-08T09:24:07;2;1;
39955;PMS5003;25631;51.516;-0.470;2023-08-08T09:26:44;1;1;
39955;PMS5003;25631;51.516;-0.470;2023-08-08T09:29:21;2;1;
39955;PMS5003;25631;51.516;-0.470;2023-08-08T09:31:58;2;1;
39955;PMS5003;25631;51.516;-0.470;2023-08-08T09:34:34;1;1;
39955;PMS5003;25631;51.516;-0.470;2023-08-08T09:37:11;1;1;
39955;PMS5003;25631;51.516;-0.470;2023-08-08T09:39:55;1;1;
39955;PMS5003;25631;51.516;-0.470;2023-08-08T09:42:32;1;1;
39955;PMS5003;25631;51.516;-0.470;2023-08-08T09:45:09;2;2;
39955;PMS5003;25631;51.516;-0.470;2023-08-08T09:47:46;2;1;
39955;PMS5003;25631;51.516;-0.470;2023-08-08T09:50:22;3;3;
39955;PMS5003;25631;51.516;-0.470;2023-08-08T09:52:59;2;1;
39955;PMS5003;25631;51.516;-0.470;2023-08-08T09:55:38;3;3;
39955;PMS5003;25631;51.516;-0.470;2023-08-08T09:58:14;3;3;
39955;PMS5003;25631;51.516;-0.470;2023-08-08T10:00:51;3;1;
39955;PMS5003;25631;51.516;-0.470;2023-08-08T10:03:28;2;1;
39955;PMS5003;25631;51.516;-0.470;2023-08-08T10:06:05;2;1;
39955;PMS5003;25631;51.516;-0.470;2023-08-08T10:08:42;1;1;
39955;PMS5003;25631;51.516;-0.470;2023-08-08T10:11:18;1;1;
39955;PMS5003;25631;51.516;-0.470;2023-08-08T10:14:00;2;2;
39955;PMS5003;25631;51.516;-0.470;2023-08-08T10:16:38;1;1;
39955;PMS5003;25631;51.516;-0.470;2023-08-08T10:19:21;1;1;
39955;PMS5003;25631;51.516;-0.470;2023-08-08T10:21:59;1;1;
39955;PMS5003;25631;51.516;-0.470;2023-08-08T10:24:38;1;1;
39955;PMS5003;25631;51.516;-0.470;2023-08-08T10:27:15;2;2;
39955;PMS5003;25631;51.516;-0.470;2023-08-08T10:30:05;2;2;
39955;PMS5003;25631;51.516;-0.470;2023-08-08T10:32:44;3;2;
39955;PMS5003;25631;51.516;-0.470;2023-08-08T10:35:21;2;2;
39955;PMS5003;25631;51.516;-0.470;2023-08-08T10:37:58;2;2;
39955;PMS5003;25631;51.516;-0.470;2023-08-08T10:40:35;1;1;
39955;PMS5003;25631;51.516;-0.470;2023-08-08T10:43:11;1;1;
39955;PMS5003;25631;51.516;-0.470;2023-08-08T10:45:48;1;1;
39955;PMS5003;25631;51.516;-0.470;2023-08-08T10:48:27;2;1;
39955;PMS5003;25631;51.516;-0.470;2023-08-08T10:51:05;1;1;
39955;PMS5003;25631;51.516;-0.470;2023-08-08T10:53:42;3;3;
39955;PMS5003;25631;51.516;-0.470;2023-08-08T10:56:19;3;3;
39955;PMS5003;25631;51.516;-0.470;2023-08-08T10:58:58;1;1;
39955;PMS5003;25631;51.516;-0.470;2023-08-08T11:01:34;3;2;
39955;PMS5003;25631;51.516;-0.470;2023-08-08T11:04:13;2;2;
39955;PMS5003;25631;51.516;-0.470;2023-08-08T11:06:50;4;4;
39955;PMS5003;25631;51.516;-0.470;2023-08-08T11:09:29;2;2;
39955;PMS5003;25631;51.516;-0.470;2023-08-08T11:12:05;2;2;
39955;PMS5003;25631;51.516;-0.470;2023-08-08T11:14:53;3;3;
39955;PMS5003;25631;51.516;-0.470;2023-08-08T11:17:31;4;4;
39955;PMS5003;25631;51.516;-0.470;2023-08-08T11:20:08;3;3;
39955;PMS5003;25631;51.516;-0.470;2023-08-08T11:22:46;3;3;
39955;PMS5003;25631;51.516;-0.470;2023-08-08T11:25:27;3;3;
39955;PMS5003;25631;51.516;-0.470;2023-08-08T11:28:05;2;2;
39955;PMS5003;25631;51.516;-0.470;2023-08-08T11:30:43;2;2;
39955;PMS5003;25631;51.516;-0.470;2023-08-08T11:33:21;2;2;
39955;PMS5003;25631;51.516;-0.470;2023-08-08T11:35:57;3;3;
39955;PMS5003;25631;51.516;-0.470;2023-08-08T11:38:34;4;4;
39955;PMS5003;25631;51.516;-0.470;2023-08-08T11:41:12;2;2;
39955;PMS5003;25631;51.516;-0.470;2023-08-08T11:43:49;2;2;
39955;PMS5003;25631;51.516;-0.470;2023-08-08T11:46:26;2;2;
39955;PMS5003;25631;51.516;-0.470;2023-08-08T11:49:03;3;2;
39955;PMS5003;25631;51.516;-0.470;2023-08-08T11:51:42;2;2;
39955;PMS5003;25631;51.516;-0.470;2023-08-08T11:54:19;3;3;
39955;PMS5003;25631;51.516;-0.470;2023-08-08T11:56:56;3;3;
39955;PMS5003;25631;51.516;-0.470;2023-08-08T11:59:32;3;3;
39955;PMS5003;25631;51.516;-0.470;2023-08-08T12:02:09;1;1;
39955;PMS5003;25631;51.516;-0.470;2023-08-08T12:04:46;1;1;
39955;PMS5003;25631;51.516;-0.470;2023-08-08T12:07:23;1;1;
39955;PMS5003;25631;51.516;-0.470;2023-08-08T12:09:59;1;1;
39955;PMS5003;25631;51.516;-0.470;2023-08-08T12:12:36;2;2;
39955;PMS5003;25631;51.516;-0.470;2023-08-08T12:15:12;3;3;
39955;PMS5003;25631;51.516;-0.470;2023-08-08T12:17:49;2;2;
39955;PMS5003;25631;51.516;-0.470;2023-08-08T12:20:27;6;6;
39955;PMS5003;25631;51.516;-0.470;2023-08-08T12:23:04;4;3;
39955;PMS5003;25631;51.516;-0.470;2023-08-08T12:25:41;5;4;
39955;PMS5003;25631;51.516;-0.470;2023-08-08T12:28:18;4;3;
39955;PMS5003;25631;51.516;-0.470;2023-08-08T12:30:55;3;2;
39955;PMS5003;25631;51.516;-0.470;2023-08-08T12:33:32;3;3;
39955;PMS5003;25631;51.516;-0.470;2023-08-08T12:36:08;5;4;
39955;PMS5003;25631;51.516;-0.470;2023-08-08T12:38:45;6;4;
39955;PMS5003;25631;51.516;-0.470;2023-08-08T12:41:22;4;3;
39955;PMS5003;25631;51.516;-0.470;2023-08-08T12:43:59;4;3;
39955;PMS5003;25631;51.516;-0.470;2023-08-08T12:46:35;3;3;
39955;PMS5003;25631;51.516;-0.470;2023-08-08T12:49:12;3;3;
39955;PMS5003;25631;51.516;-0.470;2023-08-08T12:51:49;4;4;
39955;PMS5003;25631;51.516;-0.470;2023-08-08T12:54:26;4;4;
39955;PMS5003;25631;51.516;-0.470;2023-08-08T12:57:03;4;4;
39955;PMS5003;25631;51.516;-0.470;2023-08-08T12:59:39;5;5;
39955;PMS5003;25631;51.516;-0.470;2023-08-08T13:02:16;3;2;
39955;PMS5003;25631;51.516;-0.470;2023-08-08T13:04:52;4;4;
39955;PMS5003;25631;51.516;-0.470;2023-08-08T13:07:29;4;3;
39955;PMS5003;25631;51.516;-0.470;2023-08-08T13:10:05;3;3;
39955;PMS5003;25631;51.516;-0.470;2023-08-08T13:12:43;3;3;
39955;PMS5003;25631;51.516;-0.470;2023-08-08T13:15:19;5;5;
39955;PMS5003;25631;51.516;-0.470;2023-08-08T13:17:56;4;4;
39955;PMS5003;25631;51.516;-0.470;2023-08-08T13:20:32;4;4;
39955;PMS5003;25631;51.516;-0.470;2023-08-08T13:23:09;4;4;
39955;PMS5003;25631;51.516;-0.470;2023-08-08T13:25:45;5;5;
39955;PMS5003;25631;51.516;-0.470;2023-08-08T13:28:22;5;5;
39955;PMS5003;25631;51.516;-0.470;2023-08-08T13:30:58;6;5;
39955;PMS5003;25631;51.516;-0.470;2023-08-08T13:33:35;6;5;
39955;PMS5003;25631;51.516;-0.470;2023-08-08T13:36:11;4;3;
39955;PMS5003;25631;51.516;-0.470;2023-08-08T13:38:48;4;3;
39955;PMS5003;25631;51.516;-0.470;2023-08-08T13:41:24;4;4;
39955;PMS5003;25631;51.516;-0.470;2023-08-08T13:44:00;5;5;
39955;PMS5003;25631;51.516;-0.470;2023-08-08T13:46:37;5;5;
39955;PMS5003;25631;51.516;-0.470;2023-08-08T13:49:13;4;4;
39955;PMS5003;25631;51.516;-0.470;2023-08-08T13:51:50;4;4;
39955;PMS5003;25631;51.516;-0.470;2023-08-08T13:54:26;4;4;
39955;PMS5003;25631;51.516;-0.470;2023-08-08T13:57:03;5;4;
39955;PMS5003;25631;51.516;-0.470;2023-08-08T13:59:40;4;4;
39955;PMS5003;25631;51.516;-0.470;2023-08-08T14:02:16;4;4;
39955;PMS5003;25631;51.516;-0.470;2023-08-08T14:04:53;5;4;
39955;PMS5003;25631;51.516;-0.470;2023-08-08T14:07:29;4;4;
39955;PMS5003;25631;51.516;-0.470;2023-08-08T14:10:06;4;4;
39955;PMS5003;25631;51.516;-0.470;2023-08-08T14:12:44;5;5;
39955;PMS5003;25631;51.516;-0.470;2023-08-08T14:15:20;4;4;
39955;PMS5003;25631;51.516;-0.470;2023-08-08T14:17:57;4;4;
39955;PMS5003;25631;51.516;-0.470;2023-08-08T14:20:33;4;3;
39955;PMS5003;25631;51.516;-0.470;2023-08-08T14:23:10;3;3;
39955;PMS5003;25631;51.516;-0.470;2023-08-08T14:25:46;4;3;
39955;PMS5003;25631;51.516;-0.470;2023-08-08T14:28:23;4;3;
39955;PMS5003;25631;51.516;-0.470;2023-08-08T14:31:00;3;3;
39955;PMS5003;25631;51.516;-0.470;2023-08-08T14:33:36;4;4;
39955;PMS5003;25631;51.516;-0.470;2023-08-08T14:36:13;4;4;
39955;PMS5003;25631;51.516;-0.470;2023-08-08T14:38:50;4;4;
39955;PMS5003;25631;51.516;-0.470;2023-08-08T14:41:26;4;4;
39955;PMS5003;25631;51.516;-0.470;2023-08-08T14:44:03;4;4;
39955;PMS5003;25631;51.516;-0.470;2023-08-08T14:46:40;4;4;
39955;PMS5003;25631;51.516;-0.470;2023-08-08T14:49:16;4;4;
39955;PMS5003;25631;51.516;-0.470;2023-08-08T14:51:53;5;5;
39955;PMS5003;25631;51.516;-0.470;2023-08-08T14:54:29;5;5;
39955;PMS5003;25631;51.516;-0.470;2023-08-08T14:57:05;2;2;
39955;PMS5003;25631;51.516;-0.470;2023-08-08T14:59:43;2;2;
39955;PMS5003;25631;51.516;-0.470;2023-08-08T15:02:19;2;2;
39955;PMS5003;25631;51.516;-0.470;2023-08-08T15:04:57;5;5;
39955;PMS5003;25631;51.516;-0.470;2023-08-08T15:07:33;4;4;
39955;PMS5003;25631;51.516;-0.470;2023-08-08T15:10:09;3;3;
39955;PMS5003;25631;51.516;-0.470;2023-08-08T15:12:46;3;3;
39955;PMS5003;25631;51.516;-0.470;2023-08-08T15:15:22;4;4;
39955;PMS5003;25631;51.516;-0.470;2023-08-08T15:17:59;4;4;
39955;PMS5003;25631;51.516;-0.470;2023-08-08T15:20:35;3;3;
39955;PMS5003;25631;51.516;-0.470;2023-08-08T15:23:12;3;3;
39955;PMS5003;25631;51.516;-0.470;2023-08-08T15:25:49;5;4;
39955;PMS5003;25631;51.516;-0.470;2023-08-08T15:28:25;5;5;
39955;PMS5003;25631;51.516;-0.470;2023-08-08T15:31:01;3;3;
39955;PMS5003;25631;51.516;-0.470;2023-08-08T15:33:38;3;3;
39955;PMS5003;25631;51.516;-0.470;2023-08-08T15:36:14;3;3;
39955;PMS5003;25631;51.516;-0.470;2023-08-08T15:38:51;5;5;
39955;PMS5003;25631;51.516;-0.470;2023-08-08T15:41:27;4;4;
39955;PMS5003;25631;51.516;-0.470;2023-08-08T15:44:03;4;4;
39955;PMS5003;25631;51.516;-0.470;2023-08-08T15:46:40;4;4;
39955;PMS5003;25631;51.516;-0.470;2023-08-08T15:49:17;3;3;
39955;PMS5003;25631;51.516;-0.470;2023-08-08T15:51:53;5;4;
39955;PMS5003;25631;51.516;-0.470;2023-08-08T15:54:30;4;3;
39955;PMS5003;25631;51.516;-0.470;2023-08-08T15:57:06;3;3;
39955;PMS5003;25631;51.516;-0.470;2023-08-08T15:59:43;4;4;
39955;PMS5003;25631;51.516;-0.470;2023-08-08T16:02:19;4;4;
39955;PMS5003;25631;51.516;-0.470;2023-08-08T16:04:56;5;5;
39955;PMS5003;25631;51.516;-0.470;2023-08-08T16:07:32;4;4;
39955;PMS5003;25631;51.516;-0.470;2023-08-08T16:10:09;5;5;
39955;PMS5003;25631;51.516;-0.470;2023-08-08T16:12:46;5;5;
39955;PMS5003;25631;51.516;-0.470;2023-08-08T16:15:23;3;3;
39955;PMS5003;25631;51.516;-0.470;2023-08-08T16:17:59;3;3;
39955;PMS5003;25631;51.516;-0.470;2023-08-08T16:20:36;4;4;
39955;PMS5003;25631;51.516;-0.470;2023-08-08T16:23:12;4;4;
39955;PMS5003;25631;51.516;-0.470;2023-08-08T16:25:49;4;4;
39955;PMS5003;25631;51.516;-0.470;2023-08-08T16:28:25;4;4;
39955;PMS5003;25631;51.516;-0.470;2023-08-08T16:31:01;4;4;
39955;PMS5003;25631;51.516;-0.470;2023-08-08T16:33:38;5;5;
39955;PMS5003;25631;51.516;-0.470;2023-08-08T16:36:15;4;4;
39955;PMS5003;25631;51.516;-0.470;2023-08-08T16:38:51;6;6;
39955;PMS5003;25631;51.516;-0.470;2023-08-08T16:41:27;6;6;
39955;PMS5003;25631;51.516;-0.470;2023-08-08T16:44:04;7;6;
39955;PMS5003;25631;51.516;-0.470;2023-08-08T16:46:41;6;6;
39955;PMS5003;25631;51.516;-0.470;2023-08-08T16:49:17;7;6;
39955;PMS5003;25631;51.516;-0.470;2023-08-08T16:51:56;5;5;
39955;PMS5003;25631;51.516;-0.470;2023-08-08T16:54:33;5;5;
39955;PMS5003;25631;51.516;-0.470;2023-08-08T16:57:09;5;5;
39955;PMS5003;25631;51.516;-0.470;2023-08-08T16:59:46;5;5;
39955;PMS5003;25631;51.516;-0.470;2023-08-08T17:02:22;5;5;
39955;PMS5003;25631;51.516;-0.470;2023-08-08T17:04:59;5;5;
39955;PMS5003;25631;51.516;-0.470;2023-08-08T17:07:36;6;5;
39955;PMS5003;25631;51.516;-0.470;2023-08-08T17:10:13;6;6;
39955;PMS5003;25631;51.516;-0.470;2023-08-08T17:12:49;6;5;
39955;PMS5003;25631;51.516;-0.470;2023-08-08T17:15:25;6;5;
39955;PMS5003;25631;51.516;-0.470;2023-08-08T17:18:02;5;4;
39955;PMS5003;25631;51.516;-0.470;2023-08-08T17:20:39;5;4;
39955;PMS5003;25631;51.516;-0.470;2023-08-08T17:23:16;6;5;
39955;PMS5003;25631;51.516;-0.470;2023-08-08T17:25:53;5;4;
39955;PMS5003;25631;51.516;-0.470;2023-08-08T17:28:29;5;4;
39955;PMS5003;25631;51.516;-0.470;2023-08-08T17:31:05;5;4;
39955;PMS5003;25631;51.516;-0.470;2023-08-08T17:33:42;5;5;
39955;PMS5003;25631;51.516;-0.470;2023-08-08T17:36:18;5;5;
39955;PMS5003;25631;51.516;-0.470;2023-08-08T17:38:55;5;5;